createdAt,value
2023-01-15T00:01:39.084Z,8.07
2023-01-15T00:08:04.607Z,8.11
2023-01-15T00:14:31.552Z,8.11
2023-01-15T00:20:36.620Z,8.13
2023-01-15T00:26:51.433Z,8.16
2023-01-15T00:33:00.700Z,8.24
2023-01-15T00:45:09.958Z,8.34
2023-01-15T00:51:42.674Z,8.33
2023-01-15T00:57:54.770Z,8.34
2023-01-15T01:03:48.811Z,8.36
2023-01-15T01:09:56.451Z,8.42
2023-01-15T01:16:04.596Z,8.44
2023-01-15T01:22:31.087Z,8.47
2023-01-15T01:52:53.794Z,8.62
2023-01-15T01:59:03.793Z,8.75
2023-01-15T02:07:25.231Z,8.85
2023-01-15T02:54:03.659Z,9.17
2023-01-15T03:46:55.111Z,9.33
2023-01-15T03:53:14.724Z,9.38
2023-01-15T03:59:57.033Z,9.46
2023-01-15T04:41:23.337Z,9.85
2023-01-15T04:48:24.715Z,9.84
2023-01-15T04:59:01.699Z,9.86
2023-01-15T05:04:01.379Z,9.93
2023-01-15T06:26:54.179Z,10.05
2023-01-15T06:32:29.714Z,10.14
2023-01-15T06:38:54.638Z,10.15
2023-01-15T06:52:14.021Z,10.18
2023-01-15T07:05:33.388Z,10.22
2023-01-15T07:12:01.218Z,10.21
2023-01-15T08:47:31.005Z,11.02
2023-01-15T08:53:34.986Z,11.05
2023-01-15T08:59:32.501Z,11.11
2023-01-15T09:19:20.079Z,11.24
2023-01-15T09:25:05.225Z,11.27
2023-01-15T09:31:16.224Z,11.29
2023-01-15T09:37:31.040Z,11.26
2023-01-15T09:44:15.672Z,11.30
2023-01-15T09:51:13.608Z,11.37
2023-01-15T10:03:45.416Z,11.43
2023-01-15T10:09:52.428Z,11.45
2023-01-15T10:16:21.287Z,11.51
2023-01-15T10:22:37.807Z,11.61
2023-01-15T10:28:58.156Z,11.67
2023-01-15T10:35:05.249Z,11.74
2023-01-15T10:41:22.607Z,11.82
2023-01-15T10:47:32.752Z,11.92
2023-01-15T10:56:37.880Z,12.04
2023-01-15T11:02:18.054Z,12.06
2023-01-15T11:09:07.298Z,12.07
2023-01-15T11:22:05.912Z,11.98
2023-01-15T11:28:10.196Z,11.95
2023-01-15T11:34:36.945Z,11.97
2023-01-15T11:41:13.878Z,12.00
2023-01-15T11:47:49.314Z,11.99
2023-01-15T11:54:18.221Z,11.97
2023-01-15T12:07:03.159Z,11.95
2023-01-15T12:14:00.247Z,11.88
2023-01-15T12:19:53.955Z,11.79
2023-01-15T12:26:12.198Z,11.70
2023-01-15T12:31:52.064Z,11.62
2023-01-15T12:38:06.846Z,11.52
2023-01-15T12:43:46.633Z,11.42
2023-01-15T12:49:40.045Z,11.32
2023-01-15T12:56:01.807Z,11.20
2023-01-15T13:02:24.250Z,11.02
2023-01-15T13:09:21.068Z,10.94
2023-01-15T13:15:35.271Z,10.92
2023-01-15T13:21:03.349Z,10.88
2023-01-15T13:27:51.231Z,10.91
2023-01-15T13:34:27.748Z,10.87
2023-01-15T13:40:05.585Z,10.83
2023-01-15T13:46:13.343Z,10.77
2023-01-15T13:56:58.025Z,10.71
2023-01-15T14:03:29.730Z,10.68
2023-01-15T14:09:27.555Z,10.64
2023-01-15T14:16:13.544Z,10.64
2023-01-15T14:22:17.359Z,10.74
2023-01-15T14:28:06.514Z,10.77
2023-01-15T14:34:28.535Z,10.75
2023-01-15T14:40:15.487Z,10.75
2023-01-15T14:46:26.109Z,10.78
2023-01-15T14:56:37.903Z,10.85
2023-01-15T15:02:32.941Z,10.87
2023-01-15T15:07:44.337Z,10.83
2023-01-15T15:14:23.791Z,10.81
2023-01-15T15:20:32.616Z,10.83
2023-01-15T15:26:41.543Z,10.87
2023-01-15T15:32:43.039Z,10.86
2023-01-15T15:39:07.736Z,10.81
2023-01-15T15:45:24.126Z,10.78
2023-01-15T15:51:14.768Z,10.76
2023-01-15T15:58:25.948Z,10.78
2023-01-15T16:03:34.779Z,10.79
2023-01-15T16:09:05.441Z,10.79
2023-01-15T16:14:38.312Z,10.82
2023-01-15T16:20:18.161Z,10.89
2023-01-15T16:25:38.155Z,10.92
2023-01-15T16:31:39.693Z,10.91
2023-01-15T16:37:12.563Z,10.92
2023-01-15T16:43:29.954Z,10.92
2023-01-15T16:55:03.508Z,10.92
2023-01-15T17:00:56.844Z,10.95
2023-01-15T17:06:57.188Z,10.95
2023-01-15T17:13:22.030Z,10.94
2023-01-15T17:18:37.948Z,10.89
2023-01-15T17:25:20.339Z,10.82
2023-01-15T17:39:02.723Z,10.71
2023-01-15T18:00:56.382Z,10.20
2023-01-15T18:20:05.085Z,13.84
2023-01-15T18:26:27.378Z,12.52
2023-01-15T18:33:51.792Z,11.43
2023-01-15T18:47:52.845Z,10.34
2023-01-15T19:02:04.588Z,14.11
2023-01-15T19:08:16.511Z,12.13
2023-01-15T19:14:42.037Z,11.16
2023-01-15T19:35:38.056Z,9.55
2023-01-15T19:41:26.547Z,11.07
2023-01-15T19:48:09.914Z,14.27
2023-01-15T20:02:45.431Z,11.15
2023-01-15T20:08:34.187Z,10.29
2023-01-15T20:14:52.669Z,9.84
2023-01-15T20:35:19.484Z,11.26
2023-01-15T20:41:53.598Z,13.75
2023-01-15T20:56:46.664Z,10.43
2023-01-15T21:02:57.630Z,9.87
2023-01-15T21:09:05.774Z,9.46
2023-01-15T21:15:33.382Z,9.22
2023-01-15T21:21:41.647Z,10.77
2023-01-15T21:27:35.223Z,14.10
2023-01-15T21:33:32.643Z,13.53
2023-01-15T21:39:57.042Z,11.91
2023-01-15T21:45:44.179Z,11.03
2023-01-15T21:55:45.271Z,10.16
2023-01-15T22:00:57.325Z,9.82
2023-01-15T22:06:52.919Z,9.56
2023-01-15T22:12:56.957Z,9.35
2023-01-15T22:19:21.136Z,10.99
2023-01-15T22:24:52.943Z,14.18
2023-01-15T22:31:07.589Z,13.52
2023-01-15T22:37:04.503Z,11.94
2023-01-15T22:42:59.595Z,11.12
2023-01-15T22:48:58.040Z,10.47
2023-01-15T22:55:16.268Z,9.95
2023-01-15T23:01:16.510Z,9.54
2023-01-15T23:07:02.446Z,9.23
2023-01-15T23:13:25.540Z,9.02
2023-01-15T23:19:29.742Z,10.80
2023-01-15T23:25:23.966Z,13.76
2023-01-15T23:31:30.361Z,13.05
2023-01-15T23:37:37.609Z,11.65
2023-01-15T23:43:50.030Z,10.85
2023-01-15T23:49:17.925Z,10.27
2023-01-15T23:55:24.991Z,9.86
